sensor_id;sensor_type;location;lat;lon;timestamp;temperature;humidity
19397;DHT22;9834;48.076;11.878;2022-08-23T00:01:24;13.40;99.90
19397;DHT22;9834;48.076;11.878;2022-08-23T00:03:53;13.40;99.90
19397;DHT22;9834;48.076;11.878;2022-08-23T00:06:22;13.40;99.90
19397;DHT22;9834;48.076;11.878;2022-08-23T00:08:50;13.40;99.90
19397;DHT22;9834;48.076;11.878;2022-08-23T00:11:27;13.40;99.90
19397;DHT22;9834;48.076;11.878;2022-08-23T00:13:56;13.30;99.90
19397;DHT22;9834;48.076;11.878;2022-08-23T00:16:24;13.40;99.90
19397;DHT22;9834;48.076;11.878;2022-08-23T00:18:51;13.40;99.90
19397;DHT22;9834;48.076;11.878;2022-08-23T00:21:18;13.40;99.90
19397;DHT22;9834;48.076;11.878;2022-08-23T00:23:47;13.40;99.90
19397;DHT22;9834;48.076;11.878;2022-08-23T00:26:16;13.40;99.90
19397;DHT22;9834;48.076;11.878;2022-08-23T00:28:45;13.40;99.90
19397;DHT22;9834;48.076;11.878;2022-08-23T00:31:12;13.40;99.90
19397;DHT22;9834;48.076;11.878;2022-08-23T00:33:39;13.40;99.90
19397;DHT22;9834;48.076;11.878;2022-08-23T00:36:07;13.50;99.90
19397;DHT22;9834;48.076;11.878;2022-08-23T00:38:34;13.50;99.90
19397;DHT22;9834;48.076;11.878;2022-08-23T00:41:03;13.50;99.90
19397;DHT22;9834;48.076;11.878;2022-08-23T00:43:33;13.50;99.90
19397;DHT22;9834;48.076;11.878;2022-08-23T00:46:31;13.40;99.90
19397;DHT22;9834;48.076;11.878;2022-08-23T00:49:18;13.40;99.90
19397;DHT22;9834;48.076;11.878;2022-08-23T00:51:54;13.40;99.90
19397;DHT22;9834;48.076;11.878;2022-08-23T00:54:25;13.40;99.90
19397;DHT22;9834;48.076;11.878;2022-08-23T00:56:55;13.40;99.90
19397;DHT22;9834;48.076;11.878;2022-08-23T00:59:25;13.40;99.90
19397;DHT22;9834;48.076;11.878;2022-08-23T01:01:54;13.40;99.90
19397;DHT22;9834;48.076;11.878;2022-08-23T01:04:22;13.40;99.90
19397;DHT22;9834;48.076;11.878;2022-08-23T01:07:01;13.40;99.90
19397;DHT22;9834;48.076;11.878;2022-08-23T01:09:29;13.30;99.90
19397;DHT22;9834;48.076;11.878;2022-08-23T01:12:03;13.40;99.90
19397;DHT22;9834;48.076;11.878;2022-08-23T01:14:36;13.30;99.90
19397;DHT22;9834;48.076;11.878;2022-08-23T01:17:09;13.30;99.90
19397;DHT22;9834;48.076;11.878;2022-08-23T01:19:45;13.30;99.90
19397;DHT22;9834;48.076;11.878;2022-08-23T01:22:18;13.30;99.90
19397;DHT22;9834;48.076;11.878;2022-08-23T01:24:48;13.20;99.90
19397;DHT22;9834;48.076;11.878;2022-08-23T01:27:15;13.20;99.90
19397;DHT22;9834;48.076;11.878;2022-08-23T01:29:42;13.20;99.90
19397;DHT22;9834;48.076;11.878;2022-08-23T01:32:09;13.20;99.90
19397;DHT22;9834;48.076;11.878;2022-08-23T01:34:39;13.20;99.90
19397;DHT22;9834;48.076;11.878;2022-08-23T01:37:07;13.20;99.90
19397;DHT22;9834;48.076;11.878;2022-08-23T01:39:35;13.10;99.90
19397;DHT22;9834;48.076;11.878;2022-08-23T01:42:04;13.10;99.90
19397;DHT22;9834;48.076;11.878;2022-08-23T01:44:32;13.20;99.90
19397;DHT22;9834;48.076;11.878;2022-08-23T01:46:59;13.10;99.90
19397;DHT22;9834;48.076;11.878;2022-08-23T01:49:27;13.10;99.90
19397;DHT22;9834;48.076;11.878;2022-08-23T01:51:54;13.10;99.90
19397;DHT22;9834;48.076;11.878;2022-08-23T01:54:21;13.10;99.90
19397;DHT22;9834;48.076;11.878;2022-08-23T01:56:48;13.20;99.90
19397;DHT22;9834;48.076;11.878;2022-08-23T01:59:19;13.10;99.90
19397;DHT22;9834;48.076;11.878;2022-08-23T02:01:48;13.20;99.90
19397;DHT22;9834;48.076;11.878;2022-08-23T02:04:15;13.20;99.90
19397;DHT22;9834;48.076;11.878;2022-08-23T02:06:42;13.10;99.90
19397;DHT22;9834;48.076;11.878;2022-08-23T02:09:09;13.10;99.90
19397;DHT22;9834;48.076;11.878;2022-08-23T02:11:38;13.10;99.90
19397;DHT22;9834;48.076;11.878;2022-08-23T02:14:08;13.00;99.90
19397;DHT22;9834;48.076;11.878;2022-08-23T02:16:45;13.00;99.90
19397;DHT22;9834;48.076;11.878;2022-08-23T02:19:14;13.00;99.90
19397;DHT22;9834;48.076;11.878;2022-08-23T02:21:43;13.00;99.90
19397;DHT22;9834;48.076;11.878;2022-08-23T02:24:13;12.90;99.90
19397;DHT22;9834;48.076;11.878;2022-08-23T02:26:42;12.90;99.90
19397;DHT22;9834;48.076;11.878;2022-08-23T02:29:11;12.90;99.90
19397;DHT22;9834;48.076;11.878;2022-08-23T02:31:40;12.90;99.90
19397;DHT22;9834;48.076;11.878;2022-08-23T02:34:09;12.90;99.90
19397;DHT22;9834;48.076;11.878;2022-08-23T02:36:39;12.80;99.90
19397;DHT22;9834;48.076;11.878;2022-08-23T02:39:09;12.80;99.90
19397;DHT22;9834;48.076;11.878;2022-08-23T02:41:37;12.80;99.90
19397;DHT22;9834;48.076;11.878;2022-08-23T02:44:06;12.80;99.90
19397;DHT22;9834;48.076;11.878;2022-08-23T02:46:33;12.70;99.90
19397;DHT22;9834;48.076;11.878;2022-08-23T02:49:02;12.70;99.90
19397;DHT22;9834;48.076;11.878;2022-08-23T02:51:33;12.70;99.90
19397;DHT22;9834;48.076;11.878;2022-08-23T02:54:03;12.60;99.90
19397;DHT22;9834;48.076;11.878;2022-08-23T02:56:30;12.60;99.90
19397;DHT22;9834;48.076;11.878;2022-08-23T02:58:58;12.50;99.90
19397;DHT22;9834;48.076;11.878;2022-08-23T03:01:29;12.40;99.90
19397;DHT22;9834;48.076;11.878;2022-08-23T03:03:57;12.40;99.90
19397;DHT22;9834;48.076;11.878;2022-08-23T03:06:26;12.30;99.90
19397;DHT22;9834;48.076;11.878;2022-08-23T03:08:53;12.30;99.90
19397;DHT22;9834;48.076;11.878;2022-08-23T03:11:22;12.20;99.90
19397;DHT22;9834;48.076;11.878;2022-08-23T03:13:49;12.20;99.90
19397;DHT22;9834;48.076;11.878;2022-08-23T03:16:17;12.20;99.90
19397;DHT22;9834;48.076;11.878;2022-08-23T03:18:45;12.10;99.90
19397;DHT22;9834;48.076;11.878;2022-08-23T03:21:13;12.00;99.90
19397;DHT22;9834;48.076;11.878;2022-08-23T03:23:41;12.00;99.90
19397;DHT22;9834;48.076;11.878;2022-08-23T03:26:10;12.00;99.90
19397;DHT22;9834;48.076;11.878;2022-08-23T03:28:39;11.90;99.90
19397;DHT22;9834;48.076;11.878;2022-08-23T03:31:08;11.90;99.90
19397;DHT22;9834;48.076;11.878;2022-08-23T03:33:36;11.90;99.90
19397;DHT22;9834;48.076;11.878;2022-08-23T03:36:06;11.80;99.90
19397;DHT22;9834;48.076;11.878;2022-08-23T03:38:37;11.80;99.90
19397;DHT22;9834;48.076;11.878;2022-08-23T03:41:06;11.80;99.90
19397;DHT22;9834;48.076;11.878;2022-08-23T03:43:34;11.70;99.90
19397;DHT22;9834;48.076;11.878;2022-08-23T03:46:02;11.70;99.90
19397;DHT22;9834;48.076;11.878;2022-08-23T03:48:29;11.60;99.90
19397;DHT22;9834;48.076;11.878;2022-08-23T03:50:56;11.60;99.90
19397;DHT22;9834;48.076;11.878;2022-08-23T03:53:23;11.60;99.90
19397;DHT22;9834;48.076;11.878;2022-08-23T03:55:52;11.50;99.90
19397;DHT22;9834;48.076;11.878;2022-08-23T03:58:22;11.50;99.90
19397;DHT22;9834;48.076;11.878;2022-08-23T04:00:50;11.40;99.90
19397;DHT22;9834;48.076;11.878;2022-08-23T04:03:17;11.40;99.90
19397;DHT22;9834;48.076;11.878;2022-08-23T04:05:44;11.30;99.90
19397;DHT22;9834;48.076;11.878;2022-08-23T04:08:13;11.30;99.90
19397;DHT22;9834;48.076;11.878;2022-08-23T04:10:40;11.20;99.90
19397;DHT22;9834;48.076;11.878;2022-08-23T04:13:08;11.20;99.90
19397;DHT22;9834;48.076;11.878;2022-08-23T04:15:37;11.20;99.90
19397;DHT22;9834;48.076;11.878;2022-08-23T04:18:04;11.10;99.90
19397;DHT22;9834;48.076;11.878;2022-08-23T04:20:31;11.10;99.90
19397;DHT22;9834;48.076;11.878;2022-08-23T04:22:59;11.10;99.90
19397;DHT22;9834;48.076;11.878;2022-08-23T04:25:26;11.10;99.90
19397;DHT22;9834;48.076;11.878;2022-08-23T04:27:53;11.10;99.90
19397;DHT22;9834;48.076;11.878;2022-08-23T04:30:21;11.10;99.90
19397;DHT22;9834;48.076;11.878;2022-08-23T04:32:49;11.00;99.90
19397;DHT22;9834;48.076;11.878;2022-08-23T04:35:21;11.00;99.90
19397;DHT22;9834;48.076;11.878;2022-08-23T04:41:14;10.90;99.90
19397;DHT22;9834;48.076;11.878;2022-08-23T04:43:59;10.90;99.90
19397;DHT22;9834;48.076;11.878;2022-08-23T04:46:26;10.90;99.90
19397;DHT22;9834;48.076;11.878;2022-08-23T04:48:54;10.90;99.90
19397;DHT22;9834;48.076;11.878;2022-08-23T04:51:21;10.90;99.90
19397;DHT22;9834;48.076;11.878;2022-08-23T04:53:51;10.90;99.90
19397;DHT22;9834;48.076;11.878;2022-08-23T04:56:18;11.00;99.90
19397;DHT22;9834;48.076;11.878;2022-08-23T04:58:48;11.00;99.90
19397;DHT22;9834;48.076;11.878;2022-08-23T05:01:15;11.00;99.90
19397;DHT22;9834;48.076;11.878;2022-08-23T05:03:42;11.00;99.90
19397;DHT22;9834;48.076;11.878;2022-08-23T05:06:11;11.00;99.90
19397;DHT22;9834;48.076;11.878;2022-08-23T05:08:38;11.10;99.90
19397;DHT22;9834;48.076;11.878;2022-08-23T05:11:06;11.10;99.90
19397;DHT22;9834;48.076;11.878;2022-08-23T05:13:34;11.20;99.90
19397;DHT22;9834;48.076;11.878;2022-08-23T05:16:02;11.20;99.90
19397;DHT22;9834;48.076;11.878;2022-08-23T05:18:30;11.20;99.90
19397;DHT22;9834;48.076;11.878;2022-08-23T05:20:58;11.30;99.90
19397;DHT22;9834;48.076;11.878;2022-08-23T05:23:27;11.40;99.90
19397;DHT22;9834;48.076;11.878;2022-08-23T05:25:54;11.50;99.90
19397;DHT22;9834;48.076;11.878;2022-08-23T05:28:25;11.70;99.90
19397;DHT22;9834;48.076;11.878;2022-08-23T05:30:59;11.90;99.90
19397;DHT22;9834;48.076;11.878;2022-08-23T05:33:27;12.00;99.90
19397;DHT22;9834;48.076;11.878;2022-08-23T05:35:56;12.10;99.90
19397;DHT22;9834;48.076;11.878;2022-08-23T05:38:25;12.20;99.90
19397;DHT22;9834;48.076;11.878;2022-08-23T05:40:54;12.20;99.90
19397;DHT22;9834;48.076;11.878;2022-08-23T05:43:22;12.30;99.90
19397;DHT22;9834;48.076;11.878;2022-08-23T05:45:58;12.40;99.90
19397;DHT22;9834;48.076;11.878;2022-08-23T05:48:27;12.50;99.90
19397;DHT22;9834;48.076;11.878;2022-08-23T05:50:54;12.60;99.90
19397;DHT22;9834;48.076;11.878;2022-08-23T05:53:21;12.70;99.90
19397;DHT22;9834;48.076;11.878;2022-08-23T05:55:49;12.90;99.90
19397;DHT22;9834;48.076;11.878;2022-08-23T05:58:16;13.00;99.90
19397;DHT22;9834;48.076;11.878;2022-08-23T06:00:43;13.10;99.90
19397;DHT22;9834;48.076;11.878;2022-08-23T06:03:10;13.20;99.90
19397;DHT22;9834;48.076;11.878;2022-08-23T06:05:38;13.20;99.90
19397;DHT22;9834;48.076;11.878;2022-08-23T06:08:06;13.30;99.90
19397;DHT22;9834;48.076;11.878;2022-08-23T06:10:35;13.50;99.90
19397;DHT22;9834;48.076;11.878;2022-08-23T06:13:05;13.60;99.90
19397;DHT22;9834;48.076;11.878;2022-08-23T06:15:32;13.80;99.90
19397;DHT22;9834;48.076;11.878;2022-08-23T06:17:59;13.80;99.90
19397;DHT22;9834;48.076;11.878;2022-08-23T06:20:26;13.90;99.90
19397;DHT22;9834;48.076;11.878;2022-08-23T06:22:56;14.00;99.90
19397;DHT22;9834;48.076;11.878;2022-08-23T06:25:23;14.10;99.90
19397;DHT22;9834;48.076;11.878;2022-08-23T06:27:50;14.20;99.90
19397;DHT22;9834;48.076;11.878;2022-08-23T06:30:18;14.30;99.90
19397;DHT22;9834;48.076;11.878;2022-08-23T06:32:45;14.50;99.90
19397;DHT22;9834;48.076;11.878;2022-08-23T06:35:13;14.60;99.90
19397;DHT22;9834;48.076;11.878;2022-08-23T06:37:40;14.70;99.90
19397;DHT22;9834;48.076;11.878;2022-08-23T06:40:08;14.80;99.90
19397;DHT22;9834;48.076;11.878;2022-08-23T06:42:37;15.00;99.90
19397;DHT22;9834;48.076;11.878;2022-08-23T06:45:07;15.20;99.90
19397;DHT22;9834;48.076;11.878;2022-08-23T06:47:36;15.30;99.90
19397;DHT22;9834;48.076;11.878;2022-08-23T06:50:03;15.40;99.90
19397;DHT22;9834;48.076;11.878;2022-08-23T06:52:33;15.50;99.90
19397;DHT22;9834;48.076;11.878;2022-08-23T06:55:01;15.70;99.90
19397;DHT22;9834;48.076;11.878;2022-08-23T06:57:28;15.80;99.90
19397;DHT22;9834;48.076;11.878;2022-08-23T06:59:57;15.90;99.90
19397;DHT22;9834;48.076;11.878;2022-08-23T07:02:25;15.90;99.90
19397;DHT22;9834;48.076;11.878;2022-08-23T07:04:53;16.00;99.90
19397;DHT22;9834;48.076;11.878;2022-08-23T07:07:20;16.10;99.90
19397;DHT22;9834;48.076;11.878;2022-08-23T07:09:48;16.20;99.90
19397;DHT22;9834;48.076;11.878;2022-08-23T07:12:15;16.40;99.90
19397;DHT22;9834;48.076;11.878;2022-08-23T07:14:44;16.50;99.90
19397;DHT22;9834;48.076;11.878;2022-08-23T07:17:12;16.60;99.90
19397;DHT22;9834;48.076;11.878;2022-08-23T07:19:39;16.70;99.90
19397;DHT22;9834;48.076;11.878;2022-08-23T07:22:11;16.70;99.90
19397;DHT22;9834;48.076;11.878;2022-08-23T07:24:38;16.80;99.90
19397;DHT22;9834;48.076;11.878;2022-08-23T07:27:06;16.80;99.90
19397;DHT22;9834;48.076;11.878;2022-08-23T07:29:35;16.90;99.90
19397;DHT22;9834;48.076;11.878;2022-08-23T07:32:04;17.00;99.90
19397;DHT22;9834;48.076;11.878;2022-08-23T07:34:32;17.00;99.90
19397;DHT22;9834;48.076;11.878;2022-08-23T07:36:59;17.10;99.90
19397;DHT22;9834;48.076;11.878;2022-08-23T07:39:28;17.10;99.90
19397;DHT22;9834;48.076;11.878;2022-08-23T07:41:58;17.20;99.90
19397;DHT22;9834;48.076;11.878;2022-08-23T07:44:28;17.20;99.90
19397;DHT22;9834;48.076;11.878;2022-08-23T07:46:56;17.30;99.90
19397;DHT22;9834;48.076;11.878;2022-08-23T07:49:23;17.50;99.90
19397;DHT22;9834;48.076;11.878;2022-08-23T07:51:51;17.50;99.90
19397;DHT22;9834;48.076;11.878;2022-08-23T07:54:19;17.50;99.90
19397;DHT22;9834;48.076;11.878;2022-08-23T07:56:48;17.60;99.90
19397;DHT22;9834;48.076;11.878;2022-08-23T07:59:16;17.70;99.90
19397;DHT22;9834;48.076;11.878;2022-08-23T08:01:43;17.80;99.90
19397;DHT22;9834;48.076;11.878;2022-08-23T08:04:11;17.90;99.90
19397;DHT22;9834;48.076;11.878;2022-08-23T08:06:40;18.00;99.90
19397;DHT22;9834;48.076;11.878;2022-08-23T08:09:09;18.10;99.90
19397;DHT22;9834;48.076;11.878;2022-08-23T08:11:40;18.10;99.90
19397;DHT22;9834;48.076;11.878;2022-08-23T08:14:10;18.00;99.90
19397;DHT22;9834;48.076;11.878;2022-08-23T08:16:40;18.10;99.90
19397;DHT22;9834;48.076;11.878;2022-08-23T08:19:09;18.20;99.00
19397;DHT22;9834;48.076;11.878;2022-08-23T08:21:37;18.40;97.80
19397;DHT22;9834;48.076;11.878;2022-08-23T08:24:06;18.50;97.00
19397;DHT22;9834;48.076;11.878;2022-08-23T08:26:34;18.60;97.40
19397;DHT22;9834;48.076;11.878;2022-08-23T08:29:02;18.70;96.50
19397;DHT22;9834;48.076;11.878;2022-08-23T08:31:30;18.80;95.80
19397;DHT22;9834;48.076;11.878;2022-08-23T08:33:57;18.90;95.60
19397;DHT22;9834;48.076;11.878;2022-08-23T08:36:29;19.00;94.10
19397;DHT22;9834;48.076;11.878;2022-08-23T08:38:57;19.20;92.40
19397;DHT22;9834;48.076;11.878;2022-08-23T08:44:25;19.30;90.70
19397;DHT22;9834;48.076;11.878;2022-08-23T08:46:55;19.40;90.60
19397;DHT22;9834;48.076;11.878;2022-08-23T08:49:32;19.50;88.90
19397;DHT22;9834;48.076;11.878;2022-08-23T08:52:07;19.40;88.80
19397;DHT22;9834;48.076;11.878;2022-08-23T08:54:38;19.50;88.00
19397;DHT22;9834;48.076;11.878;2022-08-23T08:57:06;19.50;90.00
19397;DHT22;9834;48.076;11.878;2022-08-23T08:59:43;19.70;87.90
19397;DHT22;9834;48.076;11.878;2022-08-23T09:02:18;19.80;85.40
19397;DHT22;9834;48.076;11.878;2022-08-23T09:04:51;19.80;85.80
19397;DHT22;9834;48.076;11.878;2022-08-23T09:07:23;19.90;86.00
19397;DHT22;9834;48.076;11.878;2022-08-23T09:13:23;20.10;91.80
19397;DHT22;9834;48.076;11.878;2022-08-23T09:15:57;20.20;84.50
19397;DHT22;9834;48.076;11.878;2022-08-23T09:18:34;20.20;82.20
19397;DHT22;9834;48.076;11.878;2022-08-23T09:21:05;20.20;84.20
19397;DHT22;9834;48.076;11.878;2022-08-23T09:23:37;20.30;83.90
19397;DHT22;9834;48.076;11.878;2022-08-23T09:26:17;20.40;85.30
19397;DHT22;9834;48.076;11.878;2022-08-23T09:28:45;20.40;85.10
19397;DHT22;9834;48.076;11.878;2022-08-23T09:31:35;20.60;87.10
19397;DHT22;9834;48.076;11.878;2022-08-23T09:34:04;20.70;86.50
19397;DHT22;9834;48.076;11.878;2022-08-23T09:36:35;20.80;81.30
19397;DHT22;9834;48.076;11.878;2022-08-23T09:39:05;21.00;84.00
19397;DHT22;9834;48.076;11.878;2022-08-23T09:41:35;21.10;80.80
19397;DHT22;9834;48.076;11.878;2022-08-23T09:44:04;21.30;74.30
19397;DHT22;9834;48.076;11.878;2022-08-23T09:46:34;21.40;71.60
19397;DHT22;9834;48.076;11.878;2022-08-23T09:49:22;21.50;71.10
19397;DHT22;9834;48.076;11.878;2022-08-23T09:51:50;21.50;73.00
19397;DHT22;9834;48.076;11.878;2022-08-23T09:54:19;21.80;76.90
19397;DHT22;9834;48.076;11.878;2022-08-23T09:56:51;22.00;70.40
19397;DHT22;9834;48.076;11.878;2022-08-23T09:59:21;22.20;71.10
19397;DHT22;9834;48.076;11.878;2022-08-23T10:01:53;22.50;71.80
19397;DHT22;9834;48.076;11.878;2022-08-23T10:04:28;22.60;70.40
19397;DHT22;9834;48.076;11.878;2022-08-23T10:06:58;22.80;69.50
19397;DHT22;9834;48.076;11.878;2022-08-23T10:09:28;22.90;68.70
19397;DHT22;9834;48.076;11.878;2022-08-23T10:11:57;23.10;68.10
19397;DHT22;9834;48.076;11.878;2022-08-23T10:14:26;23.40;66.10
19397;DHT22;9834;48.076;11.878;2022-08-23T10:17:01;23.70;66.40
19397;DHT22;9834;48.076;11.878;2022-08-23T10:19:37;24.20;69.80
19397;DHT22;9834;48.076;11.878;2022-08-23T10:22:13;24.70;68.20
19397;DHT22;9834;48.076;11.878;2022-08-23T10:24:45;25.00;60.70
19397;DHT22;9834;48.076;11.878;2022-08-23T10:27:27;25.00;57.40
19397;DHT22;9834;48.076;11.878;2022-08-23T10:30:15;25.00;57.90
19397;DHT22;9834;48.076;11.878;2022-08-23T10:32:56;24.80;55.90
19397;DHT22;9834;48.076;11.878;2022-08-23T10:35:31;24.90;56.50
19397;DHT22;9834;48.076;11.878;2022-08-23T10:38:18;25.20;55.40
19397;DHT22;9834;48.076;11.878;2022-08-23T10:40:57;25.60;53.30
19397;DHT22;9834;48.076;11.878;2022-08-23T10:43:33;25.60;56.00
19397;DHT22;9834;48.076;11.878;2022-08-23T10:46:06;25.70;54.00
19397;DHT22;9834;48.076;11.878;2022-08-23T10:48:35;26.00;54.40
19397;DHT22;9834;48.076;11.878;2022-08-23T10:51:08;26.00;51.80
19397;DHT22;9834;48.076;11.878;2022-08-23T10:53:40;25.90;52.40
19397;DHT22;9834;48.076;11.878;2022-08-23T10:56:14;26.00;53.40
19397;DHT22;9834;48.076;11.878;2022-08-23T10:58:47;26.50;53.80
19397;DHT22;9834;48.076;11.878;2022-08-23T11:01:17;27.00;49.30
19397;DHT22;9834;48.076;11.878;2022-08-23T11:04:01;27.30;48.40
19397;DHT22;9834;48.076;11.878;2022-08-23T11:06:51;27.30;47.30
19397;DHT22;9834;48.076;11.878;2022-08-23T11:09:45;27.80;48.20
19397;DHT22;9834;48.076;11.878;2022-08-23T11:12:21;27.90;48.40
19397;DHT22;9834;48.076;11.878;2022-08-23T11:15:04;28.20;45.20
19397;DHT22;9834;48.076;11.878;2022-08-23T11:17:41;28.60;46.50
19397;DHT22;9834;48.076;11.878;2022-08-23T11:20:12;29.40;48.10
19397;DHT22;9834;48.076;11.878;2022-08-23T11:23:37;29.90;43.80
19397;DHT22;9834;48.076;11.878;2022-08-23T11:26:08;30.80;41.30
19397;DHT22;9834;48.076;11.878;2022-08-23T11:28:45;31.10;44.70
19397;DHT22;9834;48.076;11.878;2022-08-23T11:31:24;31.30;41.80
19397;DHT22;9834;48.076;11.878;2022-08-23T11:33:59;31.20;43.40
19397;DHT22;9834;48.076;11.878;2022-08-23T11:36:28;31.50;42.60
19397;DHT22;9834;48.076;11.878;2022-08-23T11:39:09;31.80;40.20
19397;DHT22;9834;48.076;11.878;2022-08-23T11:42:01;32.30;40.60
19397;DHT22;9834;48.076;11.878;2022-08-23T11:44:36;32.50;40.10
19397;DHT22;9834;48.076;11.878;2022-08-23T11:47:10;32.50;36.90
19397;DHT22;9834;48.076;11.878;2022-08-23T11:49:59;32.20;39.10
19397;DHT22;9834;48.076;11.878;2022-08-23T11:56:11;32.40;40.30
19397;DHT22;9834;48.076;11.878;2022-08-23T11:59:02;32.60;35.30
19397;DHT22;9834;48.076;11.878;2022-08-23T12:01:32;33.10;37.60
19397;DHT22;9834;48.076;11.878;2022-08-23T12:04:02;33.40;34.60
19397;DHT22;9834;48.076;11.878;2022-08-23T12:06:39;32.80;35.20
19397;DHT22;9834;48.076;11.878;2022-08-23T12:09:12;33.50;36.60
19397;DHT22;9834;48.076;11.878;2022-08-23T12:12:10;33.50;37.10
19397;DHT22;9834;48.076;11.878;2022-08-23T12:14:49;33.30;36.10
19397;DHT22;9834;48.076;11.878;2022-08-23T12:17:55;33.90;34.00
19397;DHT22;9834;48.076;11.878;2022-08-23T12:20:33;34.30;35.70
19397;DHT22;9834;48.076;11.878;2022-08-23T12:23:17;34.60;33.60
19397;DHT22;9834;48.076;11.878;2022-08-23T12:25:44;35.10;34.70
19397;DHT22;9834;48.076;11.878;2022-08-23T12:28:35;35.40;36.90
19397;DHT22;9834;48.076;11.878;2022-08-23T12:31:16;36.00;38.80
19397;DHT22;9834;48.076;11.878;2022-08-23T12:34:05;36.70;31.60
19397;DHT22;9834;48.076;11.878;2022-08-23T12:36:42;36.80;32.40
19397;DHT22;9834;48.076;11.878;2022-08-23T12:39:22;37.00;34.10
19397;DHT22;9834;48.076;11.878;2022-08-23T12:44:44;38.40;31.40
19397;DHT22;9834;48.076;11.878;2022-08-23T12:47:13;37.30;28.50
19397;DHT22;9834;48.076;11.878;2022-08-23T12:49:41;37.00;31.30
19397;DHT22;9834;48.076;11.878;2022-08-23T12:52:10;37.50;32.60
19397;DHT22;9834;48.076;11.878;2022-08-23T12:54:39;38.00;28.80
19397;DHT22;9834;48.076;11.878;2022-08-23T12:57:10;38.50;28.50
19397;DHT22;9834;48.076;11.878;2022-08-23T12:59:48;38.30;27.80
19397;DHT22;9834;48.076;11.878;2022-08-23T13:02:21;38.00;29.40
19397;DHT22;9834;48.076;11.878;2022-08-23T13:04:50;38.10;30.80
19397;DHT22;9834;48.076;11.878;2022-08-23T13:07:20;38.60;30.80
19397;DHT22;9834;48.076;11.878;2022-08-23T13:09:50;38.60;28.90
19397;DHT22;9834;48.076;11.878;2022-08-23T13:12:18;39.10;27.10
19397;DHT22;9834;48.076;11.878;2022-08-23T13:14:49;39.00;28.00
19397;DHT22;9834;48.076;11.878;2022-08-23T13:17:28;39.10;26.20
19397;DHT22;9834;48.076;11.878;2022-08-23T13:20:12;39.40;26.70
19397;DHT22;9834;48.076;11.878;2022-08-23T13:23:00;40.10;26.40
19397;DHT22;9834;48.076;11.878;2022-08-23T13:25:31;40.30;25.70
19397;DHT22;9834;48.076;11.878;2022-08-23T13:28:00;39.70;26.70
19397;DHT22;9834;48.076;11.878;2022-08-23T13:30:31;39.90;27.10
19397;DHT22;9834;48.076;11.878;2022-08-23T13:33:19;40.00;29.30
19397;DHT22;9834;48.076;11.878;2022-08-23T13:36:04;41.20;29.30
19397;DHT22;9834;48.076;11.878;2022-08-23T13:38:32;41.60;26.70
19397;DHT22;9834;48.076;11.878;2022-08-23T13:41:01;41.20;25.10
19397;DHT22;9834;48.076;11.878;2022-08-23T13:43:33;41.50;25.50
19397;DHT22;9834;48.076;11.878;2022-08-23T13:46:13;41.60;27.30
19397;DHT22;9834;48.076;11.878;2022-08-23T13:48:46;41.70;24.60
19397;DHT22;9834;48.076;11.878;2022-08-23T13:51:25;41.00;24.10
19397;DHT22;9834;48.076;11.878;2022-08-23T13:53:53;40.30;25.10
19397;DHT22;9834;48.076;11.878;2022-08-23T13:56:21;40.50;27.30
19397;DHT22;9834;48.076;11.878;2022-08-23T13:58:54;41.60;25.20
19397;DHT22;9834;48.076;11.878;2022-08-23T14:01:23;41.90;25.30
19397;DHT22;9834;48.076;11.878;2022-08-23T14:03:51;41.20;26.60
19397;DHT22;9834;48.076;11.878;2022-08-23T14:06:18;42.00;25.30
19397;DHT22;9834;48.076;11.878;2022-08-23T14:08:50;40.90;25.10
19397;DHT22;9834;48.076;11.878;2022-08-23T14:11:17;40.40;25.10
19397;DHT22;9834;48.076;11.878;2022-08-23T14:13:46;40.40;25.30
19397;DHT22;9834;48.076;11.878;2022-08-23T14:16:19;40.40;25.90
19397;DHT22;9834;48.076;11.878;2022-08-23T14:18:48;41.40;25.60
19397;DHT22;9834;48.076;11.878;2022-08-23T14:21:16;41.60;26.80
19397;DHT22;9834;48.076;11.878;2022-08-23T14:23:43;41.00;25.50
19397;DHT22;9834;48.076;11.878;2022-08-23T14:26:14;41.30;25.00
19397;DHT22;9834;48.076;11.878;2022-08-23T14:28:43;40.90;26.40
19397;DHT22;9834;48.076;11.878;2022-08-23T14:31:10;41.20;25.80
19397;DHT22;9834;48.076;11.878;2022-08-23T14:33:38;41.70;23.60
19397;DHT22;9834;48.076;11.878;2022-08-23T14:36:07;42.00;24.60
19397;DHT22;9834;48.076;11.878;2022-08-23T14:38:34;42.70;24.60
19397;DHT22;9834;48.076;11.878;2022-08-23T14:41:05;42.00;25.60
19397;DHT22;9834;48.076;11.878;2022-08-23T14:43:32;41.40;25.00
19397;DHT22;9834;48.076;11.878;2022-08-23T14:46:03;40.90;24.90
19397;DHT22;9834;48.076;11.878;2022-08-23T14:48:30;41.40;25.40
19397;DHT22;9834;48.076;11.878;2022-08-23T14:50:57;42.40;25.20
19397;DHT22;9834;48.076;11.878;2022-08-23T14:53:28;42.40;23.80
19397;DHT22;9834;48.076;11.878;2022-08-23T14:55:57;43.00;25.30
19397;DHT22;9834;48.076;11.878;2022-08-23T14:58:24;43.30;24.70
19397;DHT22;9834;48.076;11.878;2022-08-23T15:00:52;42.80;25.40
19397;DHT22;9834;48.076;11.878;2022-08-23T15:03:24;42.60;25.70
19397;DHT22;9834;48.076;11.878;2022-08-23T15:05:52;42.60;25.50
19397;DHT22;9834;48.076;11.878;2022-08-23T15:08:19;41.70;26.50
19397;DHT22;9834;48.076;11.878;2022-08-23T15:10:55;41.80;27.10
19397;DHT22;9834;48.076;11.878;2022-08-23T15:13:25;41.50;25.30
19397;DHT22;9834;48.076;11.878;2022-08-23T15:15:55;41.50;25.60
19397;DHT22;9834;48.076;11.878;2022-08-23T15:18:23;40.70;25.00
19397;DHT22;9834;48.076;11.878;2022-08-23T15:20:50;39.20;27.40
19397;DHT22;9834;48.076;11.878;2022-08-23T15:23:18;38.80;26.80
19397;DHT22;9834;48.076;11.878;2022-08-23T15:25:45;38.90;26.80
19397;DHT22;9834;48.076;11.878;2022-08-23T15:28:15;39.30;28.80
19397;DHT22;9834;48.076;11.878;2022-08-23T15:30:50;40.30;27.40
19397;DHT22;9834;48.076;11.878;2022-08-23T15:33:20;40.90;27.40
19397;DHT22;9834;48.076;11.878;2022-08-23T15:35:49;41.10;27.00
19397;DHT22;9834;48.076;11.878;2022-08-23T15:38:21;40.90;28.90
19397;DHT22;9834;48.076;11.878;2022-08-23T15:40:56;41.20;27.40
19397;DHT22;9834;48.076;11.878;2022-08-23T15:43:25;41.00;27.20
19397;DHT22;9834;48.076;11.878;2022-08-23T15:45:52;41.40;28.80
19397;DHT22;9834;48.076;11.878;2022-08-23T15:48:23;41.80;28.10
19397;DHT22;9834;48.076;11.878;2022-08-23T15:50:52;41.70;27.10
19397;DHT22;9834;48.076;11.878;2022-08-23T15:53:19;41.10;28.00
19397;DHT22;9834;48.076;11.878;2022-08-23T15:55:47;41.10;27.60
19397;DHT22;9834;48.076;11.878;2022-08-23T15:58:16;40.80;27.60
19397;DHT22;9834;48.076;11.878;2022-08-23T16:00:46;40.10;28.50
19397;DHT22;9834;48.076;11.878;2022-08-23T16:03:17;39.50;27.80
19397;DHT22;9834;48.076;11.878;2022-08-23T16:05:46;39.10;27.80
19397;DHT22;9834;48.076;11.878;2022-08-23T16:08:18;39.70;29.20
19397;DHT22;9834;48.076;11.878;2022-08-23T16:10:47;39.90;28.20